Time;durP1;ratioP1;P1;durP2;ratioP2;P2;SDS_P1;SDS_P2;PMS_P1;PMS_P2;Temp;Humidity;BMP_temperature;BMP_pressure;BME280_temperature;BME280_humidity;BME280_pressure;Samples;Min_cycle;Max_cycle;Signal;HPM_P1;HPM_P2
2021/06/07 21:03:53;;;;;;;3.95;1.80;;;;;;;18.10;100.00;98770.67;1787486;79;23409;-68
2021/06/07 21:06:23;;;;;;;1.90;1.50;;;;;;;18.15;100.00;98770.01;1792023;79;21567;-69
2021/06/07 21:08:57;;;;;;;2.65;1.62;;;;;;;18.11;100.00;98769.27;1792143;80;21277;-69
2021/06/07 21:11:34;;;;;;;2.30;1.98;;;;;;;18.08;100.00;98777.88;1792036;80;21401;-69
2021/06/07 21:14:03;;;;;;;4.58;1.62;;;;;;;18.03;100.00;98774.53;1792286;79;21048;-69
2021/06/07 21:16:34;;;;;;;3.90;1.77;;;;;;;17.98;100.00;98776.53;1792067;79;21005;-68
2021/06/07 21:19:04;;;;;;;3.22;1.80;;;;;;;17.92;100.00;98774.48;1792118;79;20981;-67
2021/06/07 21:21:34;;;;;;;3.83;1.90;;;;;;;17.87;100.00;98777.81;1791903;80;22057;-68
2021/06/07 21:24:04;;;;;;;3.45;1.80;;;;;;;17.82;100.00;98784.27;1791813;80;21554;-69
2021/06/07 21:26:36;;;;;;;4.62;1.70;;;;;;;17.76;100.00;98781.86;1791986;79;20943;-69
2021/06/07 21:29:08;;;;;;;3.42;2.30;;;;;;;17.73;100.00;98776.65;1792464;80;21460;-66
2021/06/07 21:31:38;;;;;;;3.17;1.70;;;;;;;17.68;100.00;98781.30;1785800;79;21523;-68
2021/06/07 21:46:59;;;;;;;4.15;1.80;;;;;;;18.01;100.00;98765.72;1786988;79;23306;-66
2021/06/07 21:49:31;;;;;;;3.75;2.00;;;;;;;18.05;100.00;98772.67;1761036;81;21562;-66
2021/06/07 21:52:02;;;;;;;3.45;1.80;;;;;;;18.00;100.00;98761.32;1760869;81;21511;-66
2021/06/07 21:54:35;;;;;;;5.92;2.30;;;;;;;17.92;100.00;98760.27;1760685;80;21313;-66
2021/06/07 21:57:09;;;;;;;4.70;2.00;;;;;;;17.82;100.00;98762.92;1759777;81;21405;-65
2021/06/07 21:59:39;;;;;;;3.42;2.20;;;;;;;17.73;100.00;98756.64;1791268;79;21488;-66
2021/06/07 22:02:09;;;;;;;4.37;2.02;;;;;;;17.63;100.00;98752.98;1791684;79;20963;-67
2021/06/07 22:04:43;;;;;;;3.50;2.08;;;;;;;17.58;100.00;98745.64;1791714;79;21133;-66
2021/06/07 22:07:11;;;;;;;2.67;1.82;;;;;;;17.52;100.00;98749.02;1791958;79;20954;-65
2021/06/07 22:09:46;;;;;;;4.17;2.27;;;;;;;17.52;100.00;98749.02;1791665;80;20962;-66
2021/06/07 22:12:16;;;;;;;4.92;2.17;;;;;;;17.49;100.00;98748.65;1791712;79;20947;-66
2021/06/07 22:27:44;;;;;;;2.92;1.95;;;;;;;17.94;100.00;98749.07;1852061;77;22607;-67
2021/06/07 22:30:16;;;;;;;5.87;2.00;;;;;;;17.93;100.00;98746.00;1824046;78;20867;-68
2021/06/07 22:32:47;;;;;;;3.02;2.00;;;;;;;17.89;100.00;98747.06;1822971;78;21392;-67
2021/06/07 22:35:20;;;;;;;5.20;2.42;;;;;;;17.81;100.00;98743.85;1823872;78;21051;-68
2021/06/07 22:37:52;;;;;;;4.12;2.22;;;;;;;17.71;100.00;98742.03;1824360;78;21457;-65
2021/06/07 22:40:26;;;;;;;5.12;2.58;;;;;;;17.66;100.00;98735.12;1824077;78;20923;-65
2021/06/07 22:42:58;;;;;;;2.77;2.10;;;;;;;17.59;100.00;98731.84;1824019;78;20915;-66
2021/06/07 22:45:28;;;;;;;3.27;1.98;;;;;;;17.53;100.00;98736.95;1824289;78;21156;-66
2021/06/07 22:47:57;;;;;;;4.90;2.30;;;;;;;17.46;100.00;98731.44;1824330;78;20895;-65
2021/06/07 22:50:29;;;;;;;4.15;2.30;;;;;;;17.39;100.00;98727.75;1824230;78;20985;-65
2021/06/07 22:52:59;;;;;;;3.98;1.98;;;;;;;17.35;100.00;98729.67;1824473;78;20923;-65
2021/06/07 22:55:29;;;;;;;3.90;2.15;;;;;;;17.32;100.00;98731.13;1824141;78;20939;-65
2021/06/07 22:58:00;;;;;;;4.37;2.20;;;;;;;17.28;100.00;98726.84;1822737;78;21457;-66
2021/06/07 23:00:29;;;;;;;4.10;2.50;;;;;;;17.22;100.00;98727.96;1823868;78;20899;-66
2021/06/07 23:02:58;;;;;;;3.02;2.12;;;;;;;17.18;100.00;98727.68;1824223;78;21485;-65
2021/06/07 23:05:27;;;;;;;2.75;2.08;;;;;;;17.14;100.00;98724.73;1823876;78;20935;-66
2021/06/07 23:07:57;;;;;;;4.25;2.20;;;;;;;17.10;100.00;98720.45;1824194;78;20908;-66
2021/06/07 23:10:27;;;;;;;5.42;2.10;;;;;;;17.07;100.00;98727.23;1824021;78;21520;-66
2021/06/07 23:12:56;;;;;;;5.60;2.10;;;;;;;17.09;100.00;98720.52;1824243;78;20946;-66
2021/06/07 23:15:30;;;;;;;7.05;2.33;;;;;;;17.07;100.00;98721.91;1824037;78;21429;-65
2021/06/07 23:18:01;;;;;;;4.80;2.17;;;;;;;17.04;100.00;98722.49;1824189;78;21389;-66
2021/06/07 23:20:31;;;;;;;3.40;2.35;;;;;;;17.02;100.00;98720.31;1823875;78;21489;-66
2021/06/07 23:23:01;;;;;;;4.55;2.30;;;;;;;16.99;100.00;98720.84;1824518;78;21385;-66
2021/06/07 23:25:34;;;;;;;4.75;2.27;;;;;;;16.97;100.00;98725.36;1824155;78;20915;-66
2021/06/07 23:28:05;;;;;;;5.80;1.77;;;;;;;16.95;100.00;98725.88;1826761;78;20919;-66
2021/06/07 23:30:35;;;;;;;5.17;2.15;;;;;;;16.93;100.00;98726.87;1826704;78;20903;-66
2021/06/07 23:33:05;;;;;;;4.25;1.90;;;;;;;16.91;100.00;98719.41;1826638;78;20928;-66
2021/06/07 23:35:38;;;;;;;3.62;1.90;;;;;;;16.90;100.00;98715.87;1824808;78;21918;-66
2021/06/07 23:38:08;;;;;;;4.83;2.20;;;;;;;16.90;100.00;98722.53;1825861;78;21045;-65
2021/06/07 23:40:49;;;;;;;6.40;2.00;;;;;;;16.90;100.00;98722.53;1826644;78;20926;-66
2021/06/07 23:43:19;;;;;;;3.60;2.00;;;;;;;16.90;100.00;98733.19;1826663;78;21456;-66
2021/06/07 23:45:55;;;;;;;2.65;2.15;;;;;;;16.89;100.00;98732.78;1826823;78;21299;-66
2021/06/07 23:48:34;;;;;;;3.05;1.85;;;;;;;16.91;100.00;98732.72;1826978;78;21057;-66
2021/06/07 23:51:03;;;;;;;4.87;2.20;;;;;;;16.93;100.00;98735.73;1815414;78;20836;-66
2021/06/07 23:53:36;;;;;;;3.98;2.40;;;;;;;16.90;100.00;98733.65;1827215;78;21373;-66
2021/06/07 23:56:09;;;;;;;4.37;2.25;;;;;;;16.91;100.00;98738.05;1826688;78;20844;-66
2021/06/07 23:58:40;;;;;;;6.20;2.10;;;;;;;16.90;100.00;98744.30;1826769;78;20978;-66
